Time;durP1;ratioP1;P1;durP2;ratioP2;P2;SDS_P1;SDS_P2;PMS_P1;PMS_P2;Temp;Humidity;BMP_temperature;BMP_pressure;BME280_temperature;BME280_humidity;BME280_pressure;Samples;Min_cycle;Max_cycle;Signal;HPM_P1;HPM_P2
2022/02/27 00:01:52;;;;;;;35.55;18.77;;;;;;;;;;5094429;28;20229;-66
2022/02/27 00:04:20;;;;;;;28.60;17.33;;;;;;;;;;5094129;28;20667;-66
2022/02/27 00:06:47;;;;;;;29.77;14.88;;;;;;;;;;5093941;28;20198;-66
2022/02/27 00:09:15;;;;;;;29.20;14.85;;;;;;;;;;5094897;28;20284;-66
2022/02/27 00:11:42;;;;;;;24.33;16.33;;;;;;;;;;5094495;28;20233;-65
2022/02/27 00:14:09;;;;;;;37.72;23.02;;;;;;;;;;5094303;28;20204;-65
2022/02/27 00:16:36;;;;;;;43.03;23.85;;;;;;;;;;5093665;28;20229;-67
2022/02/27 00:19:03;;;;;;;37.92;26.00;;;;;;;;;;5094421;28;20276;-66
2022/02/27 00:21:32;;;;;;;48.60;33.40;;;;;;;;;;5093927;28;20689;-66
2022/02/27 00:23:59;;;;;;;37.03;29.00;;;;;;;;;;5094295;28;20227;-66
2022/02/27 00:26:26;;;;;;;33.05;20.35;;;;;;;;;;5093691;28;20233;-66
2022/02/27 00:28:54;;;;;;;27.65;18.40;;;;;;;;;;5094178;28;20204;-66
2022/02/27 00:31:21;;;;;;;24.42;18.17;;;;;;;;;;5094193;28;20195;-66
2022/02/27 00:33:48;;;;;;;24.63;16.10;;;;;;;;;;5093541;28;20201;-66
2022/02/27 00:36:16;;;;;;;21.75;14.13;;;;;;;;;;5094107;28;20280;-66
2022/02/27 00:38:45;;;;;;;19.85;13.57;;;;;;;;;;5093788;28;20224;-66
2022/02/27 00:41:12;;;;;;;22.98;14.63;;;;;;;;;;5093967;28;20230;-66
2022/02/27 00:43:40;;;;;;;26.73;14.32;;;;;;;;;;5093436;28;20285;-66
2022/02/27 00:46:07;;;;;;;28.45;14.68;;;;;;;;;;5093758;28;20656;-66
2022/02/27 00:48:34;;;;;;;19.60;13.20;;;;;;;;;;5093904;28;20194;-65
2022/02/27 00:51:01;;;;;;;21.65;13.07;;;;;;;;;;5093278;28;20198;-66
2022/02/27 00:53:29;;;;;;;20.00;13.68;;;;;;;;;;5095310;28;20234;-66
2022/02/27 00:55:57;;;;;;;27.55;15.38;;;;;;;;;;5097565;28;20193;-66
2022/02/27 00:58:24;;;;;;;25.65;14.55;;;;;;;;;;5098328;28;20324;-66
2022/02/27 01:00:52;;;;;;;32.50;19.88;;;;;;;;;;5097741;28;20280;-66
2022/02/27 01:03:19;;;;;;;26.17;16.77;;;;;;;;;;5097766;28;20194;-65
2022/02/27 01:05:46;;;;;;;27.20;15.43;;;;;;;;;;5097819;28;20197;-66
2022/02/27 01:08:13;;;;;;;23.48;13.02;;;;;;;;;;5098014;28;20558;-65
2022/02/27 01:10:41;;;;;;;18.17;14.23;;;;;;;;;;5097300;28;20319;-66
2022/02/27 01:13:09;;;;;;;29.45;13.63;;;;;;;;;;5097499;28;20195;-66
2022/02/27 01:15:36;;;;;;;25.70;13.75;;;;;;;;;;5097717;28;20226;-66
2022/02/27 01:18:04;;;;;;;19.15;13.55;;;;;;;;;;5097088;28;20264;-66
2022/02/27 01:20:31;;;;;;;21.42;14.43;;;;;;;;;;5097484;28;20285;-65
2022/02/27 01:22:58;;;;;;;23.58;14.30;;;;;;;;;;5097112;28;20689;-66
2022/02/27 01:25:25;;;;;;;26.85;13.68;;;;;;;;;;5097363;28;20190;-66
2022/02/27 01:27:53;;;;;;;21.13;13.07;;;;;;;;;;5097608;28;20233;-66
2022/02/27 01:30:22;;;;;;;27.63;14.18;;;;;;;;;;5097271;28;20189;-66
2022/02/27 01:32:49;;;;;;;18.40;12.13;;;;;;;;;;5097207;28;20233;-65
2022/02/27 01:35:16;;;;;;;18.75;12.68;;;;;;;;;;5097101;28;20202;-65
2022/02/27 01:37:43;;;;;;;21.27;11.38;;;;;;;;;;5097109;28;20308;-66
2022/02/27 01:40:11;;;;;;;26.25;14.38;;;;;;;;;;5097003;28;20729;-65
2022/02/27 01:42:38;;;;;;;24.10;12.25;;;;;;;;;;5097484;28;20284;-67
2022/02/27 01:45:06;;;;;;;18.40;11.90;;;;;;;;;;5097772;28;20282;-65
2022/02/27 01:47:35;;;;;;;18.73;11.35;;;;;;;;;;5096985;28;20240;-66
2022/02/27 01:50:02;;;;;;;19.27;11.70;;;;;;;;;;5096963;28;20281;-66
2022/02/27 01:52:30;;;;;;;18.50;11.75;;;;;;;;;;5097182;28;20197;-66
2022/02/27 01:54:58;;;;;;;23.00;13.10;;;;;;;;;;5096468;28;20227;-66
2022/02/27 01:57:25;;;;;;;18.35;11.85;;;;;;;;;;5096962;28;20612;-65
2022/02/27 01:59:52;;;;;;;22.48;12.75;;;;;;;;;;5097042;28;20205;-65
2022/02/27 02:02:20;;;;;;;24.17;13.73;;;;;;;;;;5097149;28;20280;-65
2022/02/27 02:04:48;;;;;;;21.50;11.82;;;;;;;;;;5096207;28;20285;-66
2022/02/27 02:07:16;;;;;;;21.58;13.73;;;;;;;;;;5096254;28;20669;-67
2022/02/27 02:09:43;;;;;;;18.52;13.10;;;;;;;;;;5096675;28;20280;-65
2022/02/27 02:12:12;;;;;;;17.77;11.50;;;;;;;;;;5096018;28;20226;-65
2022/02/27 02:14:39;;;;;;;21.02;11.60;;;;;;;;;;5096126;28;20200;-65
2022/02/27 02:17:06;;;;;;;16.95;10.98;;;;;;;;;;5096373;28;20243;-65
2022/02/27 02:19:33;;;;;;;20.38;11.10;;;;;;;;;;5095843;28;20316;-65
2022/02/27 02:22:03;;;;;;;19.65;11.85;;;;;;;;;;5096535;28;20200;-65
2022/02/27 02:24:30;;;;;;;18.88;10.75;;;;;;;;;;5096275;28;20197;-65
2022/02/27 02:26:57;;;;;;;23.60;11.40;;;;;;;;;;5096228;28;20193;-65
2022/02/27 02:29:25;;;;;;;24.92;12.00;;;;;;;;;;5096426;28;20204;-66
2022/02/27 02:31:54;;;;;;;17.65;10.48;;;;;;;;;;5095788;28;20232;-64
2022/02/27 02:34:22;;;;;;;26.48;11.18;;;;;;;;;;5096189;28;20193;-65
2022/02/27 02:36:49;;;;;;;20.67;10.70;;;;;;;;;;5096036;28;20619;-65
2022/02/27 02:39:19;;;;;;;22.65;10.50;;;;;;;;;;5095934;28;20213;-66
2022/02/27 02:41:46;;;;;;;22.85;10.55;;;;;;;;;;5096678;28;20198;-65
2022/02/27 02:44:14;;;;;;;24.80;10.88;;;;;;;;;;5095852;28;20308;-65
2022/02/27 02:46:42;;;;;;;24.42;11.85;;;;;;;;;;5095850;28;20220;-65
2022/02/27 02:49:10;;;;;;;20.02;10.93;;;;;;;;;;5095778;28;20205;-66
2022/02/27 02:51:37;;;;;;;12.75;10.40;;;;;;;;;;5095766;28;20189;-66
2022/02/27 02:54:05;;;;;;;16.27;10.38;;;;;;;;;;5095693;28;20280;-66
2022/02/27 02:56:33;;;;;;;23.65;12.02;;;;;;;;;;5096195;28;20225;-66
2022/02/27 02:59:01;;;;;;;19.58;9.68;;;;;;;;;;5095747;28;20259;-66
2022/02/27 03:01:28;;;;;;;18.88;10.25;;;;;;;;;;5095250;28;20651;-66
2022/02/27 03:03:56;;;;;;;17.42;10.82;;;;;;;;;;5095488;28;20190;-66
2022/02/27 03:06:23;;;;;;;26.58;11.32;;;;;;;;;;5095103;28;20208;-67
2022/02/27 03:08:51;;;;;;;23.13;11.13;;;;;;;;;;5096175;28;20220;-66
2022/02/27 03:11:19;;;;;;;15.70;10.43;;;;;;;;;;5095257;28;20286;-66
2022/02/27 03:13:48;;;;;;;19.02;11.48;;;;;;;;;;5095479;28;20196;-66
2022/02/27 03:16:16;;;;;;;21.38;11.60;;;;;;;;;;5094829;28;20289;-65
2022/02/27 03:18:43;;;;;;;21.15;11.00;;;;;;;;;;5095251;28;20217;-65
2022/02/27 03:21:10;;;;;;;25.25;12.32;;;;;;;;;;5095215;28;20194;-65
2022/02/27 03:23:38;;;;;;;19.10;11.75;;;;;;;;;;5095104;28;20204;-65
2022/02/27 03:26:05;;;;;;;15.55;11.35;;;;;;;;;;5094770;28;20193;-65
2022/02/27 03:28:32;;;;;;;22.00;11.00;;;;;;;;;;5095792;28;20219;-66
2022/02/27 03:31:01;;;;;;;23.10;12.68;;;;;;;;;;5094652;28;20200;-66
2022/02/27 03:33:28;;;;;;;17.65;11.30;;;;;;;;;;5094931;28;20197;-65
2022/02/27 03:35:55;;;;;;;26.67;11.63;;;;;;;;;;5094804;28;20194;-66
2022/02/27 03:38:23;;;;;;;25.35;10.77;;;;;;;;;;5094462;28;20700;-65
2022/02/27 03:40:50;;;;;;;18.35;10.50;;;;;;;;;;5094600;28;20651;-65
2022/02/27 03:43:17;;;;;;;19.08;11.75;;;;;;;;;;5094698;28;20197;-65
2022/02/27 03:45:44;;;;;;;17.88;10.15;;;;;;;;;;5094734;28;20280;-66
2022/02/27 03:48:13;;;;;;;25.00;12.20;;;;;;;;;;5094926;28;20290;-65
2022/02/27 03:50:40;;;;;;;19.17;10.60;;;;;;;;;;5094920;28;20285;-66
2022/02/27 03:53:07;;;;;;;26.08;10.38;;;;;;;;;;5094588;28;20276;-66
2022/02/27 03:55:35;;;;;;;18.42;11.13;;;;;;;;;;5094465;28;20289;-66
2022/02/27 03:58:03;;;;;;;24.13;12.43;;;;;;;;;;5094795;28;20284;-65
2022/02/27 04:00:30;;;;;;;18.58;11.10;;;;;;;;;;5094293;28;20204;-66
2022/02/27 04:02:57;;;;;;;22.10;9.93;;;;;;;;;;5094406;28;20196;-66
2022/02/27 04:05:26;;;;;;;22.80;10.95;;;;;;;;;;5094325;28;20189;-66
2022/02/27 04:07:53;;;;;;;23.55;10.93;;;;;;;;;;5094916;28;20285;-66
2022/02/27 04:10:20;;;;;;;22.75;11.13;;;;;;;;;;5094279;28;20237;-66
2022/02/27 04:12:48;;;;;;;14.50;10.90;;;;;;;;;;5094731;28;20279;-66
2022/02/27 04:15:15;;;;;;;21.38;13.02;;;;;;;;;;5094166;28;20194;-65
2022/02/27 04:17:42;;;;;;;18.58;10.80;;;;;;;;;;5094157;28;20208;-66
2022/02/27 04:20:10;;;;;;;20.80;10.00;;;;;;;;;;5093759;28;20685;-66
2022/02/27 04:22:39;;;;;;;21.98;10.57;;;;;;;;;;5094080;28;20276;-65
2022/02/27 04:25:07;;;;;;;18.27;11.23;;;;;;;;;;5093743;28;20229;-66
2022/02/27 04:27:34;;;;;;;18.45;10.25;;;;;;;;;;5093224;28;20547;-67
2022/02/27 04:30:01;;;;;;;26.10;9.68;;;;;;;;;;5094227;28;20335;-66
2022/02/27 04:32:28;;;;;;;20.63;9.45;;;;;;;;;;5093987;28;20554;-66
2022/02/27 04:34:56;;;;;;;13.15;9.85;;;;;;;;;;5093591;28;20225;-65
2022/02/27 04:37:23;;;;;;;25.15;8.82;;;;;;;;;;5094025;28;20202;-66
2022/02/27 04:39:51;;;;;;;18.65;9.73;;;;;;;;;;5093930;28;20214;-66
2022/02/27 04:42:19;;;;;;;19.02;10.35;;;;;;;;;;5093528;28;20201;-66
2022/02/27 04:44:46;;;;;;;17.00;9.25;;;;;;;;;;5093803;28;20235;-66
2022/02/27 04:47:13;;;;;;;15.07;9.55;;;;;;;;;;5093456;28;20198;-66
2022/02/27 04:49:41;;;;;;;17.67;10.52;;;;;;;;;;5094060;28;20654;-66
2022/02/27 04:52:08;;;;;;;19.73;10.32;;;;;;;;;;5094404;28;20643;-65
2022/02/27 04:54:35;;;;;;;14.85;9.18;;;;;;;;;;5093638;28;20288;-65
2022/02/27 04:57:05;;;;;;;16.55;8.80;;;;;;;;;;5093331;28;20200;-65
2022/02/27 04:59:32;;;;;;;19.17;9.38;;;;;;;;;;5093224;28;20249;-67
2022/02/27 05:01:59;;;;;;;20.95;9.02;;;;;;;;;;5093682;28;20289;-66
2022/02/27 05:04:26;;;;;;;12.60;10.10;;;;;;;;;;5093843;28;20607;-66
2022/02/27 05:06:53;;;;;;;27.95;9.40;;;;;;;;;;5093562;28;20284;-66
2022/02/27 05:09:21;;;;;;;22.70;10.60;;;;;;;;;;5093233;28;20202;-66
2022/02/27 05:11:49;;;;;;;20.38;9.75;;;;;;;;;;5093351;28;20313;-66
2022/02/27 05:14:17;;;;;;;16.85;9.35;;;;;;;;;;5093788;28;20196;-66
2022/02/27 05:16:44;;;;;;;12.15;9.02;;;;;;;;;;5093238;28;20643;-66
2022/02/27 05:19:13;;;;;;;12.27;8.38;;;;;;;;;;5093430;28;20667;-65
2022/02/27 05:21:40;;;;;;;15.73;8.55;;;;;;;;;;5094255;28;20267;-66
2022/02/27 05:24:08;;;;;;;14.23;8.45;;;;;;;;;;5093103;28;20246;-65
2022/02/27 05:26:35;;;;;;;12.68;7.80;;;;;;;;;;5093107;28;20200;-66
2022/02/27 05:29:04;;;;;;;16.42;9.07;;;;;;;;;;5093373;28;20229;-66
2022/02/27 05:31:32;;;;;;;13.82;7.40;;;;;;;;;;5093338;28;20198;-65
2022/02/27 05:34:00;;;;;;;10.90;6.65;;;;;;;;;;5093339;28;20221;-65
2022/02/27 05:36:27;;;;;;;14.65;9.13;;;;;;;;;;5093346;28;20288;-66
2022/02/27 05:38:54;;;;;;;18.75;8.70;;;;;;;;;;5094215;28;20557;-66
2022/02/27 05:41:22;;;;;;;23.58;8.60;;;;;;;;;;5096751;28;20197;-66
2022/02/27 05:43:49;;;;;;;14.50;8.13;;;;;;;;;;5097660;28;20207;-66
2022/02/27 05:46:17;;;;;;;17.80;8.95;;;;;;;;;;5097075;28;20216;-66
2022/02/27 05:48:45;;;;;;;14.80;8.75;;;;;;;;;;5096930;28;20197;-65
2022/02/27 05:51:12;;;;;;;18.13;11.27;;;;;;;;;;5096477;28;20198;-66
2022/02/27 05:53:40;;;;;;;14.02;8.60;;;;;;;;;;5095741;28;20194;-67
2022/02/27 05:56:07;;;;;;;21.95;10.13;;;;;;;;;;5096075;28;20282;-66
2022/02/27 05:58:36;;;;;;;16.02;7.95;;;;;;;;;;5095753;28;20193;-65
2022/02/27 06:01:03;;;;;;;20.95;8.63;;;;;;;;;;5095684;28;20210;-66
2022/02/27 06:03:30;;;;;;;15.25;7.30;;;;;;;;;;5095930;28;20284;-66
2022/02/27 06:05:59;;;;;;;10.25;8.13;;;;;;;;;;5095764;28;20272;-66
2022/02/27 06:08:26;;;;;;;17.23;8.13;;;;;;;;;;5096403;28;20270;-66
2022/02/27 06:10:53;;;;;;;11.52;8.25;;;;;;;;;;5095473;28;20694;-66
2022/02/27 06:13:20;;;;;;;11.07;7.57;;;;;;;;;;5096279;28;20231;-65
2022/02/27 06:15:47;;;;;;;19.50;8.20;;;;;;;;;;5095841;28;20196;-65
2022/02/27 06:18:15;;;;;;;13.65;7.10;;;;;;;;;;5096135;28;20211;-65
2022/02/27 06:20:42;;;;;;;15.20;8.38;;;;;;;;;;5095981;28;20213;-65
2022/02/27 06:23:12;;;;;;;14.75;7.85;;;;;;;;;;5096168;28;20285;-66
2022/02/27 06:25:40;;;;;;;16.90;7.93;;;;;;;;;;5096007;28;20203;-65
2022/02/27 06:28:07;;;;;;;16.73;8.00;;;;;;;;;;5096241;28;20194;-66
2022/02/27 06:30:34;;;;;;;12.32;8.05;;;;;;;;;;5095830;28;20628;-65
2022/02/27 06:33:01;;;;;;;13.63;6.72;;;;;;;;;;5095635;28;20670;-65
2022/02/27 06:35:29;;;;;;;11.68;7.13;;;;;;;;;;5095997;28;20196;-66
2022/02/27 06:37:56;;;;;;;12.27;6.88;;;;;;;;;;5095905;28;20204;-67
2022/02/27 06:40:25;;;;;;;12.30;7.45;;;;;;;;;;5095798;28;20229;-66
2022/02/27 06:42:53;;;;;;;17.10;8.23;;;;;;;;;;5095891;28;20554;-66
2022/02/27 06:45:20;;;;;;;13.93;7.55;;;;;;;;;;5096081;28;20302;-65
2022/02/27 06:47:47;;;;;;;17.17;8.18;;;;;;;;;;5095828;28;20189;-66
2022/02/27 06:50:14;;;;;;;9.15;7.22;;;;;;;;;;5095149;28;20198;-66
2022/02/27 06:52:42;;;;;;;21.45;7.78;;;;;;;;;;5094882;28;20283;-65
2022/02/27 06:55:09;;;;;;;19.08;7.15;;;;;;;;;;5095412;28;20204;-66
2022/02/27 06:57:38;;;;;;;13.00;6.53;;;;;;;;;;5094834;28;20651;-66
2022/02/27 07:00:09;;;;;;;11.20;6.47;;;;;;;;;;5095177;28;20224;-66
2022/02/27 07:02:36;;;;;;;12.43;6.90;;;;;;;;;;5095911;28;20188;-66
2022/02/27 07:05:04;;;;;;;23.00;8.60;;;;;;;;;;5095523;28;20193;-66
2022/02/27 07:07:31;;;;;;;9.95;7.03;;;;;;;;;;5095741;28;20193;-66
2022/02/27 07:10:00;;;;;;;9.48;7.05;;;;;;;;;;5095060;28;20202;-65
2022/02/27 07:12:27;;;;;;;12.60;7.32;;;;;;;;;;5095316;28;20233;-66
2022/02/27 07:14:56;;;;;;;15.05;7.22;;;;;;;;;;5094969;28;20289;-66
2022/02/27 07:17:23;;;;;;;9.73;7.38;;;;;;;;;;5094996;28;20228;-66
2022/02/27 07:19:50;;;;;;;12.00;6.68;;;;;;;;;;5094433;28;20312;-66
2022/02/27 07:22:18;;;;;;;10.60;6.95;;;;;;;;;;5094705;28;20276;-66
2022/02/27 07:24:45;;;;;;;20.05;7.30;;;;;;;;;;5094775;28;20228;-66
2022/02/27 07:27:12;;;;;;;14.13;7.90;;;;;;;;;;5095004;28;20232;-67
2022/02/27 07:29:40;;;;;;;18.58;8.50;;;;;;;;;;5094876;28;20281;-68
2022/02/27 07:32:11;;;;;;;18.85;8.20;;;;;;;;;;5094343;28;20247;-66
2022/02/27 07:34:38;;;;;;;23.38;8.23;;;;;;;;;;5095380;28;20575;-66
2022/02/27 07:37:05;;;;;;;12.18;7.47;;;;;;;;;;5094549;28;20198;-67
2022/02/27 07:39:33;;;;;;;17.42;7.63;;;;;;;;;;5094292;28;20316;-66
2022/02/27 07:42:00;;;;;;;12.05;7.53;;;;;;;;;;5094900;28;20237;-68
2022/02/27 07:44:27;;;;;;;12.80;7.25;;;;;;;;;;5094776;28;20613;-67
2022/02/27 07:46:55;;;;;;;18.05;8.48;;;;;;;;;;5094589;28;20194;-67
2022/02/27 07:49:23;;;;;;;11.55;6.88;;;;;;;;;;5094226;28;20253;-67
2022/02/27 07:51:51;;;;;;;14.40;7.72;;;;;;;;;;5093658;28;20723;-67
2022/02/27 07:54:18;;;;;;;8.25;5.75;;;;;;;;;;5094218;28;20286;-67
2022/02/27 07:56:45;;;;;;;13.75;6.65;;;;;;;;;;5094018;28;20659;-67
2022/02/27 07:59:12;;;;;;;7.68;6.20;;;;;;;;;;5093995;28;20193;-66
2022/02/27 08:01:40;;;;;;;14.52;7.10;;;;;;;;;;5094118;28;20201;-66
2022/02/27 08:04:07;;;;;;;15.63;5.45;;;;;;;;;;5095176;28;20190;-67
2022/02/27 08:06:36;;;;;;;9.90;5.70;;;;;;;;;;5094303;28;20191;-67
2022/02/27 08:09:03;;;;;;;12.23;5.63;;;;;;;;;;5094179;28;20200;-66
2022/02/27 08:11:31;;;;;;;10.25;6.90;;;;;;;;;;5093163;28;20317;-66
2022/02/27 08:13:58;;;;;;;8.38;4.55;;;;;;;;;;5094112;28;20562;-67
2022/02/27 08:16:26;;;;;;;10.00;6.32;;;;;;;;;;5094011;28;20284;-67
2022/02/27 08:18:53;;;;;;;10.77;5.97;;;;;;;;;;5093337;28;20625;-66
2022/02/27 08:21:20;;;;;;;10.95;4.95;;;;;;;;;;5093879;28;20236;-69
2022/02/27 08:23:49;;;;;;;9.40;4.80;;;;;;;;;;5094570;28;20602;-66
2022/02/27 08:26:16;;;;;;;13.80;6.13;;;;;;;;;;5094244;28;20221;-66
2022/02/27 08:28:44;;;;;;;8.80;5.95;;;;;;;;;;5093871;28;20281;-66
2022/02/27 08:31:11;;;;;;;8.18;5.82;;;;;;;;;;5093136;28;20677;-67
2022/02/27 08:33:38;;;;;;;14.65;5.72;;;;;;;;;;5093717;28;20194;-68
2022/02/27 08:36:06;;;;;;;9.95;6.53;;;;;;;;;;5093763;28;20188;-67
2022/02/27 08:38:33;;;;;;;11.98;6.50;;;;;;;;;;5093089;28;20230;-66
2022/02/27 08:41:01;;;;;;;8.65;5.50;;;;;;;;;;5093543;28;20312;-67
2022/02/27 08:43:29;;;;;;;8.10;5.70;;;;;;;;;;5093408;28;20663;-66
2022/02/27 08:45:56;;;;;;;14.15;5.85;;;;;;;;;;5093432;28;20285;-67
2022/02/27 08:48:23;;;;;;;11.52;5.38;;;;;;;;;;5093723;28;20195;-66
2022/02/27 08:50:51;;;;;;;7.10;5.75;;;;;;;;;;5093362;28;20203;-66
2022/02/27 08:53:18;;;;;;;10.13;5.13;;;;;;;;;;5093451;28;20203;-67
2022/02/27 08:55:45;;;;;;;8.70;5.05;;;;;;;;;;5094094;28;20196;-66
2022/02/27 08:58:14;;;;;;;5.88;4.45;;;;;;;;;;5093085;28;20605;-67
2022/02/27 09:00:41;;;;;;;6.80;4.95;;;;;;;;;;5092778;28;20313;-68
2022/02/27 09:03:10;;;;;;;7.25;4.60;;;;;;;;;;5093842;28;20558;-68
2022/02/27 09:05:37;;;;;;;6.55;5.22;;;;;;;;;;5094370;28;20194;-67
2022/02/27 09:08:04;;;;;;;10.43;6.00;;;;;;;;;;5093269;28;20193;-68
2022/02/27 09:10:32;;;;;;;6.55;4.75;;;;;;;;;;5092558;28;20284;-69
2022/02/27 09:12:59;;;;;;;9.32;4.90;;;;;;;;;;5093308;28;20189;-69
2022/02/27 09:15:27;;;;;;;8.35;5.28;;;;;;;;;;5096467;28;20191;-71
2022/02/27 09:17:55;;;;;;;8.50;5.57;;;;;;;;;;5096887;28;20206;-67
2022/02/27 09:20:23;;;;;;;10.40;5.28;;;;;;;;;;5096980;28;20222;-67
2022/02/27 09:22:50;;;;;;;10.82;5.60;;;;;;;;;;5097731;28;20297;-66
2022/02/27 09:25:23;;;;;;;10.02;5.75;;;;;;;;;;5097182;28;20627;-68
2022/02/27 09:27:50;;;;;;;12.27;5.47;;;;;;;;;;5097147;28;20249;-69
2022/02/27 09:30:18;;;;;;;12.30;5.13;;;;;;;;;;5097294;28;20303;-68
2022/02/27 09:32:46;;;;;;;9.98;4.88;;;;;;;;;;5096365;28;20199;-67
2022/02/27 09:35:13;;;;;;;7.95;5.05;;;;;;;;;;5097088;28;20192;-68
2022/02/27 09:37:41;;;;;;;15.82;5.50;;;;;;;;;;5096770;28;20205;-68
2022/02/27 09:40:08;;;;;;;11.95;6.35;;;;;;;;;;5096391;28;20244;-67
2022/02/27 09:42:36;;;;;;;7.95;4.57;;;;;;;;;;5096943;28;20559;-68
2022/02/27 09:45:04;;;;;;;9.65;5.55;;;;;;;;;;5096476;28;20206;-67
2022/02/27 09:47:32;;;;;;;8.02;5.20;;;;;;;;;;5096866;28;20247;-68
2022/02/27 09:50:01;;;;;;;8.85;4.53;;;;;;;;;;5096489;28;20714;-68
2022/02/27 09:52:29;;;;;;;7.28;4.90;;;;;;;;;;5096088;28;20209;-67
2022/02/27 09:54:56;;;;;;;7.45;4.63;;;;;;;;;;5096584;28;20191;-68
2022/02/27 09:57:24;;;;;;;13.82;5.43;;;;;;;;;;5096165;28;20669;-68
2022/02/27 09:59:52;;;;;;;8.48;5.78;;;;;;;;;;5095934;28;20218;-68
2022/02/27 10:02:19;;;;;;;8.43;4.65;;;;;;;;;;5096155;28;20201;-69
2022/02/27 10:04:48;;;;;;;6.28;5.15;;;;;;;;;;5097091;28;20249;-67
2022/02/27 10:07:18;;;;;;;6.32;4.55;;;;;;;;;;5097185;28;20281;-68
2022/02/27 10:09:46;;;;;;;7.35;4.20;;;;;;;;;;5096006;28;20653;-67
2022/02/27 10:12:14;;;;;;;12.40;5.25;;;;;;;;;;5095687;28;20304;-68
2022/02/27 10:14:42;;;;;;;11.65;4.28;;;;;;;;;;5096202;28;20199;-67
2022/02/27 10:17:09;;;;;;;6.38;4.75;;;;;;;;;;5096050;28;20190;-68
2022/02/27 10:19:40;;;;;;;6.43;4.55;;;;;;;;;;5095699;28;20278;-68
2022/02/27 10:22:08;;;;;;;11.13;4.18;;;;;;;;;;5095899;28;20214;-67
2022/02/27 10:24:37;;;;;;;8.93;4.70;;;;;;;;;;5096953;28;20359;-67
2022/02/27 10:27:14;;;;;;;7.35;4.55;;;;;;;;;;5094452;28;20245;-67
2022/02/27 10:29:42;;;;;;;8.60;3.97;;;;;;;;;;5096096;28;20273;-67
2022/02/27 10:32:10;;;;;;;6.88;4.43;;;;;;;;;;5095537;28;20284;-68
2022/02/27 10:34:37;;;;;;;6.65;4.32;;;;;;;;;;5095973;28;20257;-68
2022/02/27 10:37:05;;;;;;;5.40;3.97;;;;;;;;;;5095790;28;20255;-67
2022/02/27 10:39:34;;;;;;;8.43;5.18;;;;;;;;;;5095238;28;20248;-68
2022/02/27 10:42:13;;;;;;;6.82;4.60;;;;;;;;;;5095755;28;20636;-67
2022/02/27 10:44:42;;;;;;;5.70;4.00;;;;;;;;;;5095769;28;20577;-68
2022/02/27 10:47:13;;;;;;;7.25;5.13;;;;;;;;;;5095407;28;20228;-68
2022/02/27 10:49:40;;;;;;;6.45;4.43;;;;;;;;;;5095437;28;20269;-67
2022/02/27 10:52:12;;;;;;;9.93;4.15;;;;;;;;;;5095311;28;20278;-68
2022/02/27 10:54:40;;;;;;;6.80;4.05;;;;;;;;;;5095359;28;20708;-68
2022/02/27 10:57:11;;;;;;;7.03;4.50;;;;;;;;;;5095293;28;20195;-67
2022/02/27 10:59:40;;;;;;;10.10;4.70;;;;;;;;;;5095120;28;20184;-67
2022/02/27 11:02:14;;;;;;;10.75;4.65;;;;;;;;;;5095080;28;20220;-68
2022/02/27 11:04:41;;;;;;;8.00;4.72;;;;;;;;;;5095489;28;20603;-68
2022/02/27 11:07:08;;;;;;;6.10;5.20;;;;;;;;;;5095031;28;20232;-68
2022/02/27 11:09:36;;;;;;;8.82;4.53;;;;;;;;;;5094996;28;20201;-67
2022/02/27 11:12:03;;;;;;;9.07;4.55;;;;;;;;;;5094512;28;20644;-68
2022/02/27 11:14:31;;;;;;;9.73;4.50;;;;;;;;;;5094976;28;20287;-68
2022/02/27 11:17:00;;;;;;;6.78;4.80;;;;;;;;;;5094681;28;20210;-68
2022/02/27 11:19:27;;;;;;;10.48;4.40;;;;;;;;;;5094681;28;20195;-68
2022/02/27 11:21:55;;;;;;;9.10;5.78;;;;;;;;;;5094552;28;20247;-68
2022/02/27 11:24:22;;;;;;;12.00;4.50;;;;;;;;;;5094747;28;20197;-68
2022/02/27 11:26:50;;;;;;;5.72;4.00;;;;;;;;;;5095240;28;20229;-68
2022/02/27 11:29:17;;;;;;;8.57;4.30;;;;;;;;;;5095438;28;20235;-67
2022/02/27 11:31:45;;;;;;;12.05;4.68;;;;;;;;;;5094263;28;20246;-68
2022/02/27 11:34:14;;;;;;;10.20;5.65;;;;;;;;;;5094658;28;20281;-68
2022/02/27 11:36:41;;;;;;;6.47;4.30;;;;;;;;;;5094374;28;20291;-67
2022/02/27 11:40:27;;;;;;;5.63;4.53;;;;;;;;;;5094228;28;20251;-68
2022/02/27 11:41:57;;;;;;;7.13;4.75;;;;;;;;;;5094341;28;20259;-69
2022/02/27 11:44:32;;;;;;;7.63;4.30;;;;;;;;;;5094371;28;20324;-68
2022/02/27 11:47:07;;;;;;;7.53;4.20;;;;;;;;;;5095314;28;20183;-68
2022/02/27 11:49:39;;;;;;;8.05;4.05;;;;;;;;;;5094537;28;20552;-67
2022/02/27 11:52:10;;;;;;;6.85;3.90;;;;;;;;;;5093681;28;20670;-68
2022/02/27 11:54:41;;;;;;;6.60;4.18;;;;;;;;;;5094232;28;20197;-68
2022/02/27 11:57:14;;;;;;;8.15;4.50;;;;;;;;;;5094437;28;20242;-68
2022/02/27 12:00:01;;;;;;;12.55;4.80;;;;;;;;;;5093598;28;20191;-67
2022/02/27 12:02:35;;;;;;;3.85;3.10;;;;;;;;;;5093737;28;20270;-68
2022/02/27 12:05:05;;;;;;;4.55;3.35;;;;;;;;;;5094384;28;20241;-68
2022/02/27 12:07:52;;;;;;;4.43;2.90;;;;;;;;;;5094557;28;20614;-68
2022/02/27 12:10:33;;;;;;;8.13;4.63;;;;;;;;;;5093604;28;20260;-68
2022/02/27 12:13:00;;;;;;;6.60;3.53;;;;;;;;;;5093921;28;20207;-68
2022/02/27 12:15:32;;;;;;;4.18;3.20;;;;;;;;;;5093748;28;20679;-68
2022/02/27 12:18:01;;;;;;;4.75;4.22;;;;;;;;;;5094813;28;20192;-68
2022/02/27 12:20:44;;;;;;;6.18;3.22;;;;;;;;;;5093738;28;20277;-68
2022/02/27 12:23:13;;;;;;;4.00;3.55;;;;;;;;;;5094839;28;20192;-67
2022/02/27 12:25:41;;;;;;;8.48;4.25;;;;;;;;;;5094127;28;20192;-68
2022/02/27 12:28:08;;;;;;;4.88;3.80;;;;;;;;;;5093747;28;20205;-67
2022/02/27 12:30:35;;;;;;;3.95;3.30;;;;;;;;;;5093852;28;20203;-68
2022/02/27 12:33:07;;;;;;;5.15;2.65;;;;;;;;;;5093374;28;20291;-68
2022/02/27 12:35:34;;;;;;;6.03;4.35;;;;;;;;;;5093376;28;20187;-68
2022/02/27 12:38:06;;;;;;;4.95;3.67;;;;;;;;;;5093405;28;20286;-68
2022/02/27 12:40:34;;;;;;;3.67;3.30;;;;;;;;;;5093266;28;20288;-68
2022/02/27 12:43:02;;;;;;;3.67;2.63;;;;;;;;;;5094464;28;20227;-68
2022/02/27 12:45:30;;;;;;;3.95;3.08;;;;;;;;;;5093173;28;20281;-68
2022/02/27 12:48:07;;;;;;;3.13;2.83;;;;;;;;;;5093096;28;20199;-67
2022/02/27 12:50:42;;;;;;;2.55;2.35;;;;;;;;;;5093132;28;20279;-67
2022/02/27 12:53:11;;;;;;;3.17;2.83;;;;;;;;;;5093548;28;20184;-68
2022/02/27 12:55:39;;;;;;;4.70;2.95;;;;;;;;;;5093596;28;20230;-68
2022/02/27 12:58:15;;;;;;;9.95;3.17;;;;;;;;;;5094146;28;20677;-67
2022/02/27 13:00:44;;;;;;;2.40;2.13;;;;;;;;;;5093522;28;20237;-67
2022/02/27 13:03:12;;;;;;;2.85;2.55;;;;;;;;;;5092992;28;20193;-67
2022/02/27 13:05:39;;;;;;;2.63;2.35;;;;;;;;;;5092963;28;20200;-67
2022/02/27 13:08:07;;;;;;;2.70;2.50;;;;;;;;;;5092887;28;20196;-68
2022/02/27 13:10:37;;;;;;;4.88;2.70;;;;;;;;;;5093102;28;20205;-67
2022/02/27 13:13:10;;;;;;;3.33;3.03;;;;;;;;;;5093041;28;20194;-68
2022/02/27 13:15:38;;;;;;;7.53;3.22;;;;;;;;;;5093426;28;20212;-68
2022/02/27 13:18:05;;;;;;;3.75;2.97;;;;;;;;;;5093167;28;20200;-68
2022/02/27 13:20:36;;;;;;;2.60;2.10;;;;;;;;;;5093286;28;20607;-69
2022/02/27 13:23:03;;;;;;;4.38;2.50;;;;;;;;;;5093556;28;20213;-68
2022/02/27 13:25:35;;;;;;;4.18;2.90;;;;;;;;;;5093145;28;20203;-68
2022/02/27 13:28:04;;;;;;;3.30;2.70;;;;;;;;;;5092893;28;20558;-69
2022/02/27 13:30:31;;;;;;;3.45;2.90;;;;;;;;;;5093031;28;20193;-69
2022/02/27 13:33:00;;;;;;;4.38;2.40;;;;;;;;;;5093020;28;20202;-68
2022/02/27 13:35:36;;;;;;;4.07;2.55;;;;;;;;;;5092938;28;20227;-68
2022/02/27 13:38:10;;;;;;;3.60;2.88;;;;;;;;;;5094088;28;20191;-68
2022/02/27 13:40:39;;;;;;;5.55;2.75;;;;;;;;;;5093106;28;20278;-68
2022/02/27 13:43:16;;;;;;;7.55;2.40;;;;;;;;;;5091934;28;20301;-68
2022/02/27 13:45:45;;;;;;;4.15;2.83;;;;;;;;;;5092229;28;20189;-69
2022/02/27 13:48:13;;;;;;;3.38;2.63;;;;;;;;;;5092779;28;20200;-69
2022/02/27 13:50:41;;;;;;;2.30;2.20;;;;;;;;;;5091923;28;20300;-68
2022/02/27 13:53:09;;;;;;;6.18;2.65;;;;;;;;;;5092382;28;20229;-69
2022/02/27 13:55:37;;;;;;;2.60;2.40;;;;;;;;;;5092562;28;20202;-67
2022/02/27 13:58:05;;;;;;;11.45;3.75;;;;;;;;;;5092457;28;20197;-67
2022/02/27 14:00:35;;;;;;;2.83;2.20;;;;;;;;;;5093804;28;20289;-67
2022/02/27 14:03:06;;;;;;;3.00;2.70;;;;;;;;;;5096292;28;20221;-68
2022/02/27 14:05:35;;;;;;;6.85;2.63;;;;;;;;;;5096127;28;20284;-69
2022/02/27 14:08:04;;;;;;;4.63;2.58;;;;;;;;;;5096008;28;20194;-68
2022/02/27 14:10:32;;;;;;;4.50;2.60;;;;;;;;;;5095525;28;20626;-68
2022/02/27 14:13:01;;;;;;;3.67;2.40;;;;;;;;;;5095918;28;20224;-68
2022/02/27 14:15:30;;;;;;;2.38;1.90;;;;;;;;;;5095672;28;20197;-68
2022/02/27 14:17:59;;;;;;;2.92;2.40;;;;;;;;;;5096053;28;20608;-68
2022/02/27 14:20:31;;;;;;;4.22;2.20;;;;;;;;;;5096002;28;20275;-69
2022/02/27 14:23:09;;;;;;;2.83;2.53;;;;;;;;;;5096043;28;20217;-68
2022/02/27 14:25:40;;;;;;;3.25;2.70;;;;;;;;;;5096012;28;20732;-68
2022/02/27 14:28:09;;;;;;;2.95;2.30;;;;;;;;;;5096255;28;20272;-68
2022/02/27 14:30:37;;;;;;;2.45;2.30;;;;;;;;;;5095226;28;20305;-68
2022/02/27 14:33:07;;;;;;;6.88;3.83;;;;;;;;;;5095408;28;20286;-68
2022/02/27 14:35:34;;;;;;;2.88;2.58;;;;;;;;;;5095664;28;20202;-69
2022/02/27 14:38:01;;;;;;;5.75;3.10;;;;;;;;;;5095787;28;20282;-69